| time (UTC) | temp C | wind direction | speed KPH | gust KPH | rain 1hr cm | rain 24hr cm | rain mn cm | humidity % | barometer mb |
| 20260507085135 | 8 | 63 | 3.2 | 9.7 | 0.03 | 0.79 | 0.08 | 89 | 1006.6 |
| 20260507084135 | 8 | 43 | 1.6 | 9.7 | 0.03 | 0.79 | 0.08 | 89 | 1006.9 |
| 20260507083037 | 8 | 58 | 3.2 | 9.7 | 0.03 | 0.79 | 0.08 | 90 | 1006.7 |
| 20260507082136 | 9 | 22 | 3.2 | 9.7 | 0.03 | 0.79 | 0.08 | 90 | 1006.6 |
| 20260507081136 | 9 | 332 | 1.6 | 9.7 | 0.03 | 0.79 | 0.08 | 90 | 1006.5 |
| 20260507080136 | 10 | 43 | 1.6 | 9.7 | 0.03 | 0.79 | 0.08 | 89 | 1006.7 |
| 20260507075137 | 10 | 32 | 3.2 | 9.7 | 0.00 | 0.76 | 0.05 | 89 | 1006.7 |
| 20260507074136 | 10 | 40 | 3.2 | 8.0 | 0.00 | 0.76 | 0.05 | 89 | 1006.9 |
| 20260507073137 | 10 | 75 | 3.2 | 8.0 | 0.00 | 0.76 | 0.05 | 89 | 1006.2 |
| 20260507072137 | 10 | 38 | 3.2 | 8.0 | 0.00 | 0.76 | 0.05 | 90 | 1006.0 |
| 20260507071136 | 10 | 347 | 1.6 | 6.4 | 0.00 | 0.76 | 0.05 | 90 | 1006.3 |
| 20260507070136 | 10 | 12 | 1.6 | 8.0 | 0.00 | 0.76 | 0.05 | 90 | 1006.1 |
| 20260507065136 | 10 | 88 | 1.6 | 8.0 | 0.00 | 0.76 | 0.05 | 90 | 1006.1 |
| 20260507064136 | 10 | 338 | 1.6 | 14.5 | 0.00 | 0.76 | 0.05 | 90 | 1005.9 |
| 20260507063137 | 10 | 46 | 1.6 | 14.5 | 0.00 | 0.76 | 0.05 | 89 | 1005.9 |
| 20260507062135 | 10 | 38 | 1.6 | 14.5 | 0.00 | 0.76 | 0.05 | 89 | 1005.8 |
| 20260507061136 | 10 | 42 | 3.2 | 14.5 | 0.00 | 0.76 | 0.05 | 88 | 1005.9 |
| 20260507060136 | 10 | 53 | 4.8 | 14.5 | 0.00 | 0.76 | 0.05 | 88 | 1006.0 |
| 20260507055137 | 10 | 58 | 4.8 | 14.5 | 0.00 | 0.76 | 0.05 | 89 | 1006.3 |
| 20260507054136 | 10 | 44 | 4.8 | 11.3 | 0.00 | 0.76 | 0.05 | 90 | 1006.4 |
| 20260507053137 | 10 | 53 | 3.2 | 14.5 | 0.00 | 0.76 | 0.05 | 90 | 1006.2 |
| 20260507052136 | 11 | 44 | 4.8 | 14.5 | 0.00 | 0.76 | 0.05 | 90 | 1006.7 |
| 20260507051136 | 11 | 334 | 4.8 | 14.5 | 0.03 | 0.76 | 0.05 | 91 | 1006.4 |
| 20260507050136 | 11 | 62 | 4.8 | 14.5 | 0.03 | 0.76 | 0.05 | 92 | 1006.5 |
| 20260507045136 | 11 | 33 | 4.8 | 14.5 | 0.03 | 0.76 | 0.05 | 92 | 1006.3 |
| 20260507044136 | 12 | 60 | 4.8 | 14.5 | 0.03 | 0.76 | 0.05 | 92 | 1006.1 |
| 20260507043138 | 12 | 58 | 6.4 | 14.5 | 0.03 | 0.76 | 0.05 | 92 | 1006.1 |
| 20260507042136 | 13 | 40 | 3.2 | 14.5 | 0.03 | 0.76 | 0.05 | 92 | 1006.1 |
| 20260507041137 | 13 | 47 | 1.6 | 14.5 | 0.03 | 0.74 | 0.03 | 91 | 1006.4 |
| 20260507040136 | 13 | 64 | 4.8 | 12.9 | 0.03 | 0.74 | 0.03 | 92 | 1006.1 |
| 20260507035136 | 14 | 46 | 6.4 | 12.9 | 0.03 | 0.74 | 0.03 | 93 | 1005.7 |
| 20260507034137 | 14 | 25 | 3.2 | 12.9 | 0.03 | 0.74 | 0.03 | 93 | 1005.7 |
| 20260507033136 | 14 | 66 | 3.2 | 12.9 | 0.03 | 0.74 | 0.03 | 94 | 1005.5 |
| 20260507032136 | 15 | 39 | 6.4 | 12.9 | 0.03 | 0.74 | 0.03 | 94 | 1005.3 |
| 20260507031136 | 14 | 22 | 4.8 | 9.7 | 0.00 | 0.71 | 0.00 | 94 | 1005.3 |
| 20260507030136 | 14 | 9 | 3.2 | 9.7 | 0.00 | 0.71 | 0.00 | 94 | 1005.0 |
| 20260507025136 | 15 | 274 | 3.2 | 9.7 | 0.00 | 0.71 | 0.00 | 94 | 1005.1 |
| 20260507024135 | 14 | 251 | 3.2 | 8.0 | 0.00 | 0.71 | 0.00 | 94 | 1005.0 |
| 20260507023136 | 14 | 308 | 4.8 | 14.5 | 0.00 | 0.71 | 0.00 | 94 | 1005.1 |
| 20260507022137 | 14 | 222 | 3.2 | 14.5 | 0.00 | 0.71 | 0.00 | 93 | 1004.9 |
| 20260507021135 | 14 | 255 | 3.2 | 14.5 | 0.00 | 0.71 | 0.00 | 93 | 1005.0 |
| 20260507020135 | 14 | 287 | 3.2 | 16.1 | 0.00 | 0.71 | 0.00 | 93 | 1005.0 |
| 20260507015136 | 14 | 141 | 1.6 | 16.1 | 0.00 | 0.71 | 0.00 | 93 | 1005.2 |
| 20260507014136 | 14 | 279 | 6.4 | 17.7 | 0.00 | 0.71 | 0.00 | 93 | 1005.1 |
| 20260507013137 | 14 | 272 | 3.2 | 17.7 | 0.00 | 0.71 | 0.00 | 93 | 1005.2 |
| 20260507012137 | 14 | 269 | 1.6 | 17.7 | 0.00 | 0.71 | 0.00 | 93 | 1005.3 |
| 20260507011137 | 14 | 317 | 4.8 | 17.7 | 0.00 | 0.71 | 0.00 | 93 | 1005.4 |
| 20260507010136 | 15 | 3 | 3.2 | 17.7 | 0.00 | 0.71 | 0.00 | 93 | 1005.3 |
| 20260507005136 | 15 | 287 | 4.8 | 17.7 | 0.00 | 0.71 | 0.00 | 93 | 1005.4 |
| 20260507004137 | 15 | 264 | 4.8 | 11.3 | 0.03 | 0.71 | 0.00 | 93 | 1005.2 |
| 20260507003136 | 15 | 294 | 4.8 | 11.3 | 0.03 | 0.71 | 0.00 | 93 | 1005.1 |
| 20260507002136 | 15 | 264 | 4.8 | 11.3 | 0.05 | 0.71 | 0.00 | 93 | 1005.0 |
| 20260507001137 | 15 | 275 | 3.2 | 11.3 | 0.13 | 0.71 | 0.00 | 93 | 1005.1 |
| 20260507000136 | 15 | 265 | 3.2 | 11.3 | 0.15 | 0.71 | 0.00 | 93 | 1005.1 |
| 20260506235136 | 15 | 341 | 4.8 | 11.3 | 0.18 | 0.71 | 0.71 | 93 | 1005.0 |
| 20260506234136 | 15 | 277 | 4.8 | 11.3 | 0.20 | 0.69 | 0.69 | 93 | 1005.0 |
| 20260506233136 | 15 | 275 | 3.2 | 11.3 | 0.25 | 0.69 | 0.69 | 93 | 1005.0 |
| 20260506232140 | 15 | 239 | 4.8 | 11.3 | 0.30 | 0.66 | 0.66 | 92 | 1005.0 |
| 20260506231136 | 15 | 327 | 3.2 | 11.3 | 0.23 | 0.58 | 0.58 | 92 | 1005.2 |
| 20260506230136 | 15 | 311 | 4.8 | 11.3 | 0.23 | 0.56 | 0.56 | 92 | 1005.4 |
| 20260506225136 | 15 | 69 | 4.8 | 12.9 | 0.23 | 0.53 | 0.53 | 92 | 1005.3 |
| 20260506224136 | 15 | 203 | 8.0 | 12.9 | 0.18 | 0.48 | 0.48 | 92 | 1005.4 |
| 20260506223136 | 15 | 152 | 3.2 | 12.9 | 0.15 | 0.43 | 0.43 | 91 | 1005.4 |
| 20260506222136 | 15 | 258 | 3.2 | 12.9 | 0.08 | 0.36 | 0.36 | 91 | 1005.5 |
| 20260506221136 | 15 | 291 | 4.8 | 12.9 | 0.08 | 0.36 | 0.36 | 91 | 1005.6 |
| 20260506220136 | 15 | 128 | 6.4 | 14.5 | 0.08 | 0.33 | 0.33 | 91 | 1005.7 |
| 20260506215136 | 15 | 274 | 4.8 | 14.5 | 0.08 | 0.30 | 0.30 | 91 | 1005.6 |
| 20260506214135 | 15 | 161 | 4.8 | 17.7 | 0.10 | 0.30 | 0.30 | 90 | 1005.6 |
| 20260506213137 | 15 | 72 | 4.8 | 17.7 | 0.13 | 0.28 | 0.28 | 90 | 1005.8 |
| 20260506212136 | 15 | 306 | 3.2 | 17.7 | 0.15 | 0.28 | 0.28 | 90 | 1006.0 |
| 20260506211135 | 15 | 260 | 6.4 | 17.7 | 0.20 | 0.28 | 0.28 | 89 | 1006.3 |
| 20260506210137 | 16 | 303 | 6.4 | 17.7 | 0.18 | 0.25 | 0.25 | 88 | 1006.1 |
| 20260506205138 | 16 | 225 | 6.4 | 17.7 | 0.18 | 0.23 | 0.23 | 87 | 1006.2 |
| 20260506204137 | 16 | 270 | 4.8 | 12.9 | 0.15 | 0.20 | 0.20 | 86 | 1006.3 |
| 20260506203136 | 16 | 281 | 4.8 | 12.9 | 0.13 | 0.15 | 0.15 | 86 | 1006.3 |
| 20260506202137 | 16 | 323 | 4.8 | 12.9 | 0.10 | 0.13 | 0.13 | 84 | 1006.1 |
| 20260506201136 | 17 | 310 | 6.4 | 11.3 | 0.08 | 0.08 | 0.08 | 83 | 1006.1 |
| 20260506200136 | 17 | 187 | 4.8 | 16.1 | 0.08 | 0.08 | 0.08 | 83 | 1006.2 |
| 20260506195136 | 17 | 211 | 3.2 | 17.7 | 0.05 | 0.05 | 0.05 | 81 | 1006.2 |
| 20260506194136 | 17 | 20 | 1.6 | 17.7 | 0.05 | 0.05 | 0.05 | 79 | 1006.3 |
| 20260506193138 | 18 | 158 | 3.2 | 22.5 | 0.03 | 0.03 | 0.03 | 77 | 1006.3 |
| 20260506192136 | 18 | 289 | 6.4 | 22.5 | 0.03 | 0.03 | 0.03 | 75 | 1006.2 |
| 20260506191136 | 19 | 190 | 6.4 | 22.5 | 0.00 | 0.00 | 0.00 | 71 | 1006.3 |
| 20260506190137 | 20 | 303 | 8.0 | 22.5 | 0.00 | 0.00 | 0.00 | 68 | 1006.3 |
| 20260506185136 | 20 | 243 | 6.4 | 22.5 | 0.00 | 0.00 | 0.00 | 66 | 1006.3 |
| 20260506184136 | 21 | 221 | 11.3 | 22.5 | 0.00 | 0.00 | 0.00 | 63 | 1006.1 |
| 20260506183136 | 21 | 311 | 9.7 | 22.5 | 0.00 | 0.00 | 0.00 | 60 | 1006.3 |
| 20260506182136 | 21 | 223 | 9.7 | 22.5 | 0.00 | 0.00 | 0.00 | 59 | 1006.1 |
| 20260506181136 | 22 | 311 | 6.4 | 22.5 | 0.00 | 0.00 | 0.00 | 59 | 1006.3 |
| 20260506180136 | 22 | 280 | 12.9 | 22.5 | 0.00 | 0.00 | 0.00 | 56 | 1006.3 |
| 20260506175136 | 22 | 279 | 8.0 | 20.9 | 0.00 | 0.00 | 0.00 | 57 | 1006.5 |
| 20260506174137 | 22 | 296 | 11.3 | 22.5 | 0.00 | 0.00 | 0.00 | 57 | 1006.5 |
| 20260506173137 | 23 | 297 | 9.7 | 22.5 | 0.00 | 0.00 | 0.00 | 56 | 1006.5 |
| 20260506172138 | 23 | 258 | 8.0 | 22.5 | 0.00 | 0.00 | 0.00 | 56 | 1006.3 |
| 20260506171136 | 23 | 287 | 11.3 | 22.5 | 0.00 | 0.00 | 0.00 | 57 | 1006.7 |
| 20260506170136 | 22 | 293 | 6.4 | 22.5 | 0.00 | 0.00 | 0.00 | 59 | 1006.8 |
| 20260506165135 | 22 | 254 | 9.7 | 22.5 | 0.00 | 0.00 | 0.00 | 59 | 1007.1 |
| 20260506164136 | 22 | 241 | 9.7 | 24.1 | 0.00 | 0.00 | 0.00 | 59 | 1007.1 |
| 20260506163136 | 22 | 139 | 8.0 | 24.1 | 0.00 | 0.00 | 0.00 | 59 | 1007.1 |
| 20260506162137 | 22 | 283 | 6.4 | 24.1 | 0.00 | 0.00 | 0.00 | 59 | 1007.4 |
| 20260506161136 | 22 | 262 | 6.4 | 24.1 | 0.00 | 0.00 | 0.00 | 60 | 1007.4 |
| 20260506160136 | 22 | 78 | 6.4 | 24.1 | 0.00 | 0.00 | 0.00 | 60 | 1007.8 |
| 20260506155136 | 22 | 289 | 6.4 | 24.1 | 0.00 | 0.00 | 0.00 | 60 | 1007.9 |
| 20260506154137 | 22 | 266 | 8.0 | 20.9 | 0.00 | 0.00 | 0.00 | 61 | 1008.1 |
| 20260506153136 | 22 | 308 | 8.0 | 20.9 | 0.00 | 0.00 | 0.00 | 62 | 1008.4 |
| 20260506152136 | 22 | 253 | 6.4 | 20.9 | 0.00 | 0.00 | 0.00 | 61 | 1008.5 |
| 20260506151136 | 22 | 208 | 4.8 | 20.9 | 0.00 | 0.00 | 0.00 | 63 | 1008.4 |
| 20260506150136 | 21 | 11 | 8.0 | 20.9 | 0.00 | 0.00 | 0.00 | 63 | 1008.5 |
| 20260506145136 | 21 | 271 | 9.7 | 20.9 | 0.00 | 0.00 | 0.00 | 64 | 1008.5 |
| 20260506144136 | 21 | 85 | 6.4 | 17.7 | 0.00 | 0.00 | 0.00 | 65 | 1008.5 |
| 20260506143135 | 21 | 291 | 8.0 | 17.7 | 0.00 | 0.00 | 0.00 | 65 | 1008.5 |
| 20260506142136 | 21 | 306 | 6.4 | 17.7 | 0.00 | 0.00 | 0.00 | 67 | 1008.2 |
| 20260506141136 | 20 | 258 | 9.7 | 17.7 | 0.00 | 0.00 | 0.00 | 68 | 1008.3 |
| 20260506140136 | 20 | 221 | 8.0 | 17.7 | 0.00 | 0.00 | 0.00 | 69 | 1008.4 |
| 20260506135137 | 20 | 250 | 8.0 | 17.7 | 0.00 | 0.00 | 0.00 | 71 | 1008.5 |
| 20260506134136 | 19 | 258 | 6.4 | 16.1 | 0.00 | 0.00 | 0.00 | 72 | 1008.8 |
| 20260506133136 | 18 | 267 | 4.8 | 16.1 | 0.00 | 0.00 | 0.00 | 72 | 1009.0 |
| 20260506132136 | 18 | 307 | 9.7 | 19.3 | 0.00 | 0.00 | 0.00 | 72 | 1009.1 |
| 20260506131137 | 18 | 319 | 6.4 | 19.3 | 0.00 | 0.00 | 0.00 | 73 | 1009.0 |
| 20260506130136 | 18 | 284 | 6.4 | 19.3 | 0.00 | 0.00 | 0.00 | 72 | 1009.1 |
| 20260506125136 | 18 | 267 | 6.4 | 19.3 | 0.00 | 0.00 | 0.00 | 73 | 1008.9 |
| 20260506124136 | 18 | 220 | 8.0 | 19.3 | 0.00 | 0.00 | 0.00 | 73 | 1008.9 |
| 20260506123137 | 18 | 292 | 8.0 | 19.3 | 0.00 | 0.00 | 0.00 | 73 | 1009.1 |
| 20260506122137 | 18 | 124 | 4.8 | 17.7 | 0.00 | 0.00 | 0.00 | 74 | 1009.1 |
| 20260506121138 | 17 | 230 | 8.0 | 17.7 | 0.00 | 0.00 | 0.00 | 76 | 1008.9 |
| 20260506120137 | 17 | 281 | 4.8 | 17.7 | 0.00 | 0.00 | 0.00 | 75 | 1009.2 |
| 20260506115136 | 17 | 165 | 8.0 | 17.7 | 0.00 | 0.00 | 0.00 | 76 | 1009.2 |
| 20260506114135 | 17 | 297 | 4.8 | 11.3 | 0.00 | 0.00 | 0.00 | 76 | 1009.3 |
| 20260506113136 | 17 | 340 | 6.4 | 14.5 | 0.00 | 0.00 | 0.00 | 76 | 1009.5 |
| 20260506112136 | 17 | 291 | 6.4 | 14.5 | 0.00 | 0.00 | 0.00 | 77 | 1009.5 |
| 20260506111137 | 16 | 248 | 4.8 | 14.5 | 0.00 | 0.00 | 0.00 | 78 | 1009.3 |
| 20260506110135 | 16 | 315 | 6.4 | 14.5 | 0.00 | 0.00 | 0.00 | 78 | 1009.5 |
| 20260506105137 | 16 | 232 | 6.4 | 14.5 | 0.00 | 0.00 | 0.00 | 78 | 1009.6 |
| 20260506104137 | 16 | 255 | 4.8 | 14.5 | 0.00 | 0.00 | 0.00 | 78 | 1009.5 |
| 20260506103136 | 15 | 257 | 8.0 | 12.9 | 0.00 | 0.00 | 0.00 | 78 | 1009.4 |
| 20260506102135 | 15 | 335 | 3.2 | 12.9 | 0.00 | 0.00 | 0.00 | 78 | 1009.4 |
| 20260506101136 | 15 | 283 | 3.2 | 12.9 | 0.00 | 0.00 | 0.00 | 78 | 1009.5 |
| 20260506100136 | 15 | 171 | 1.6 | 12.9 | 0.00 | 0.00 | 0.00 | 77 | 1009.6 |
| 20260506095137 | 15 | 274 | 3.2 | 12.9 | 0.00 | 0.00 | 0.00 | 77 | 1009.4 |
| 20260506094136 | 15 | 295 | 6.4 | 12.9 | 0.00 | 0.00 | 0.00 | 76 | 1009.3 |
| 20260506093137 | 15 | 214 | 6.4 | 14.5 | 0.00 | 0.00 | 0.00 | 76 | 1009.4 |
| 20260506092136 | 15 | 271 | 6.4 | 14.5 | 0.00 | 0.00 | 0.00 | 76 | 1009.5 |
| 20260506091135 | 16 | 40 | 3.2 | 14.5 | 0.00 | 0.00 | 0.00 | 75 | 1009.4 |
| 20260506090136 | 16 | 199 | 4.8 | 14.5 | 0.00 | 0.00 | 0.00 | 75 | 1009.4 |